createdAt,value
2022-12-09T00:01:14.383Z,-1.70
2022-12-09T00:03:41.805Z,-1.81
2022-12-09T00:06:23.533Z,-1.80
2022-12-09T00:08:50.677Z,-1.87
2022-12-09T00:11:20.499Z,-1.93
2022-12-09T00:13:52.357Z,-2.00
2022-12-09T00:16:19.948Z,-1.96
2022-12-09T00:18:47.598Z,-1.99
2022-12-09T00:21:19.857Z,-2.10
2022-12-09T00:23:47.345Z,-1.87
2022-12-09T00:26:17.894Z,-1.86
2022-12-09T00:28:44.455Z,-1.78
2022-12-09T00:31:14.824Z,-1.87
2022-12-09T00:33:41.569Z,-1.88
2022-12-09T00:36:16.637Z,-1.80
2022-12-09T00:38:43.960Z,-1.76
2022-12-09T00:41:11.158Z,-1.79
2022-12-09T00:43:38.050Z,-1.57
2022-12-09T00:46:04.910Z,-1.75
2022-12-09T00:48:34.240Z,-1.73
2022-12-09T00:51:02.109Z,-1.56
2022-12-09T00:53:28.684Z,-1.57
2022-12-09T00:55:55.174Z,-1.63
2022-12-09T00:58:24.556Z,-1.66
2022-12-09T01:00:53.895Z,-1.66
2022-12-09T01:03:20.980Z,-1.61
2022-12-09T01:05:47.759Z,-1.64
2022-12-09T01:08:16.244Z,-1.55
2022-12-09T01:10:45.909Z,-1.53
2022-12-09T01:13:14.525Z,-1.67
2022-12-09T01:15:41.640Z,-1.73
2022-12-09T01:18:08.649Z,-1.72
2022-12-09T01:20:38.538Z,-1.68
2022-12-09T01:23:05.292Z,-1.64
2022-12-09T01:25:31.872Z,-1.64
2022-12-09T01:27:58.593Z,-1.56
2022-12-09T01:30:25.349Z,-1.45
2022-12-09T01:32:52.035Z,-1.38
2022-12-09T01:35:18.923Z,-1.55
2022-12-09T01:37:45.376Z,-1.70
2022-12-09T01:40:18.407Z,-1.75
2022-12-09T01:42:45.538Z,-1.78
2022-12-09T01:45:21.496Z,-1.79
2022-12-09T01:47:51.479Z,-1.70
2022-12-09T01:50:18.364Z,-1.80
2022-12-09T01:52:46.244Z,-1.78
2022-12-09T01:55:13.502Z,-1.64
2022-12-09T01:57:41.065Z,-1.57
2022-12-09T02:00:08.361Z,-1.52
2022-12-09T02:02:39.889Z,-1.31
2022-12-09T02:05:07.463Z,-1.62
2022-12-09T02:07:37.398Z,-1.63
2022-12-09T02:10:08.873Z,-1.66
2022-12-09T02:12:55.938Z,-1.53
2022-12-09T02:15:35.099Z,-1.48
2022-12-09T02:18:07.893Z,-1.46
2022-12-09T02:20:52.672Z,-1.49
2022-12-09T02:23:35.690Z,-1.36
2022-12-09T02:26:25.145Z,-1.38
2022-12-09T02:29:11.978Z,-1.35
2022-12-09T02:31:54.147Z,-1.30
2022-12-09T02:34:23.272Z,-1.37
2022-12-09T02:37:00.436Z,-1.31
2022-12-09T02:39:38.282Z,-1.18
2022-12-09T02:42:08.388Z,-1.05
2022-12-09T02:44:39.488Z,-0.95
2022-12-09T02:47:10.251Z,-0.88
2022-12-09T02:49:40.756Z,-0.93
2022-12-09T02:52:10.462Z,-0.97
2022-12-09T02:54:38.670Z,-0.94
2022-12-09T02:57:12.912Z,-0.86
2022-12-09T02:59:39.510Z,-1.02
2022-12-09T03:02:20.180Z,-0.92
2022-12-09T03:04:57.363Z,-0.82
2022-12-09T03:07:49.307Z,-0.90
2022-12-09T03:10:53.639Z,-0.75
2022-12-09T03:13:29.299Z,-0.74
2022-12-09T03:16:14.784Z,-0.55
2022-12-09T03:18:47.807Z,-0.55
2022-12-09T03:21:18.828Z,-0.52
2022-12-09T03:23:46.822Z,-0.39
2022-12-09T03:26:15.858Z,-0.36
2022-12-09T03:28:50.122Z,-0.33
2022-12-09T03:31:19.994Z,-0.35
2022-12-09T03:33:52.320Z,-0.30
2022-12-09T03:36:20.919Z,-0.34
2022-12-09T03:38:49.135Z,-0.39
2022-12-09T03:41:29.605Z,-0.29
2022-12-09T03:44:09.136Z,-0.47
2022-12-09T03:46:38.597Z,-0.37
2022-12-09T03:49:06.300Z,-0.40
2022-12-09T03:51:45.130Z,-0.47
2022-12-09T03:54:29.713Z,-0.57
2022-12-09T03:56:58.481Z,-0.44
2022-12-09T03:59:29.389Z,-0.36
2022-12-09T04:01:56.550Z,-0.52
2022-12-09T04:04:23.638Z,-0.49
2022-12-09T04:06:52.981Z,-0.44
2022-12-09T04:09:20.005Z,-0.50
2022-12-09T04:11:46.942Z,-0.32
2022-12-09T04:14:15.810Z,-0.33
2022-12-09T04:16:45.592Z,-0.42
2022-12-09T04:19:12.543Z,-0.46
2022-12-09T04:21:39.828Z,-0.39
2022-12-09T04:24:09.440Z,-0.44
2022-12-09T04:26:36.249Z,-0.41
2022-12-09T04:29:03.672Z,-0.38
2022-12-09T04:31:32.508Z,-0.40
2022-12-09T04:34:06.773Z,-0.37
2022-12-09T04:36:35.725Z,-0.42
2022-12-09T04:39:04.755Z,-0.31
2022-12-09T04:41:33.939Z,-0.31
2022-12-09T04:44:01.561Z,-0.29
2022-12-09T04:46:28.563Z,-0.39
2022-12-09T04:48:55.634Z,-0.31
2022-12-09T04:51:22.271Z,-0.40
2022-12-09T04:53:48.784Z,-0.40
2022-12-09T04:56:19.073Z,-0.46
2022-12-09T04:58:46.405Z,-0.33
2022-12-09T05:01:18.119Z,-0.37
2022-12-09T05:03:49.257Z,-0.34
2022-12-09T05:06:17.045Z,-0.29
2022-12-09T05:08:43.930Z,-0.20
2022-12-09T05:11:11.348Z,-0.24
2022-12-09T05:13:40.722Z,-0.40
2022-12-09T05:16:16.277Z,-0.48
2022-12-09T05:18:44.777Z,-0.46
2022-12-09T05:21:16.734Z,-0.45
2022-12-09T05:23:44.350Z,-0.33
2022-12-09T05:26:17.923Z,-0.56
2022-12-09T05:28:44.564Z,-0.46
2022-12-09T05:31:15.542Z,-0.56
2022-12-09T05:33:46.231Z,-0.48
2022-12-09T05:36:15.759Z,-0.47
2022-12-09T05:38:43.759Z,-0.48
2022-12-09T05:41:11.308Z,-0.67
2022-12-09T05:43:41.098Z,-0.63
2022-12-09T05:46:10.295Z,-0.54
2022-12-09T05:48:37.390Z,-0.44
2022-12-09T05:51:07.280Z,-0.60
2022-12-09T05:53:34.686Z,-0.51
2022-12-09T05:56:01.927Z,-0.49
2022-12-09T05:58:29.048Z,-0.44
2022-12-09T06:00:58.639Z,-0.33
2022-12-09T06:03:25.512Z,-0.31
2022-12-09T06:05:52.526Z,-0.21
2022-12-09T06:08:21.950Z,-0.28
2022-12-09T06:10:49.076Z,-0.09
2022-12-09T06:13:18.840Z,-0.04
2022-12-09T06:15:53.198Z,-0.02
2022-12-09T06:18:19.985Z,-0.08
2022-12-09T06:20:46.655Z,0.04
2022-12-09T06:23:13.643Z,0.16
2022-12-09T06:25:44.703Z,0.20
2022-12-09T06:28:11.812Z,0.20
2022-12-09T06:30:38.951Z,0.21
2022-12-09T06:33:17.487Z,0.31
2022-12-09T06:35:52.789Z,0.27
2022-12-09T06:38:21.988Z,0.25
2022-12-09T06:40:48.681Z,0.30
2022-12-09T06:43:15.593Z,0.39
2022-12-09T06:45:42.290Z,0.49
2022-12-09T06:48:09.230Z,0.52
2022-12-09T06:50:38.525Z,0.44
2022-12-09T06:53:05.487Z,0.47
2022-12-09T06:55:32.373Z,0.54
2022-12-09T06:57:59.867Z,0.56
2022-12-09T07:00:26.754Z,0.59
2022-12-09T07:02:54.465Z,0.61
2022-12-09T07:05:21.504Z,0.52
2022-12-09T07:07:52.403Z,0.54
2022-12-09T07:10:20.720Z,0.60
2022-12-09T07:12:50.128Z,0.70
2022-12-09T07:15:17.030Z,0.63
2022-12-09T07:17:43.921Z,0.60
2022-12-09T07:20:11.233Z,0.69
2022-12-09T07:22:38.009Z,0.64
2022-12-09T07:25:08.174Z,0.70
2022-12-09T07:27:35.619Z,0.88
2022-12-09T07:30:04.810Z,0.84
2022-12-09T07:32:31.569Z,0.96
2022-12-09T07:34:58.643Z,1.07
2022-12-09T07:37:27.834Z,0.96
2022-12-09T07:39:54.662Z,0.96
2022-12-09T07:42:23.522Z,0.97
2022-12-09T07:44:52.820Z,1.12
2022-12-09T07:47:19.759Z,1.15
2022-12-09T07:49:46.830Z,1.15
2022-12-09T07:52:14.148Z,1.15
2022-12-09T07:54:40.742Z,1.20
2022-12-09T07:57:12.519Z,1.34
2022-12-09T07:59:39.212Z,1.34
2022-12-09T08:02:06.689Z,1.33
2022-12-09T08:04:38.610Z,1.40
2022-12-09T08:07:05.627Z,1.48
2022-12-09T08:09:35.631Z,1.47
2022-12-09T08:12:05.225Z,1.41
2022-12-09T08:14:32.296Z,1.41
2022-12-09T08:17:02.122Z,1.49
2022-12-09T08:19:31.598Z,1.53
2022-12-09T08:21:58.715Z,1.55
2022-12-09T08:24:28.155Z,1.61
2022-12-09T08:26:55.047Z,1.53
2022-12-09T08:29:22.288Z,1.64
2022-12-09T08:31:49.085Z,1.63
2022-12-09T08:34:16.151Z,1.69
2022-12-09T08:36:43.666Z,1.76
2022-12-09T08:39:13.907Z,1.70
2022-12-09T08:41:41.133Z,1.70
2022-12-09T08:44:19.597Z,1.71
2022-12-09T08:46:51.246Z,1.74
2022-12-09T08:49:21.173Z,1.74
2022-12-09T08:51:50.201Z,1.79
2022-12-09T08:54:17.372Z,1.96
2022-12-09T08:56:46.281Z,2.00
2022-12-09T08:59:16.214Z,1.98
2022-12-09T09:01:43.146Z,1.95
2022-12-09T09:04:13.270Z,1.93
2022-12-09T09:06:42.455Z,1.91
2022-12-09T09:09:11.637Z,2.03
2022-12-09T09:11:40.367Z,1.97
2022-12-09T09:14:11.823Z,1.94
2022-12-09T09:16:40.889Z,2.12
2022-12-09T09:19:10.562Z,2.15
2022-12-09T09:21:37.770Z,2.08
2022-12-09T09:24:09.526Z,2.09
2022-12-09T09:26:40.017Z,2.03
2022-12-09T09:29:10.526Z,2.05
2022-12-09T09:31:40.204Z,1.99
2022-12-09T09:34:10.161Z,2.11
2022-12-09T09:36:37.032Z,2.12
2022-12-09T09:39:06.842Z,2.22
2022-12-09T09:41:48.896Z,2.29
2022-12-09T09:44:28.135Z,2.34
2022-12-09T09:46:56.789Z,2.15
2022-12-09T09:49:33.621Z,2.26
2022-12-09T09:52:07.286Z,2.14
2022-12-09T09:54:34.468Z,2.31
2022-12-09T09:57:17.359Z,2.37
2022-12-09T10:00:00.751Z,2.43
2022-12-09T10:02:37.927Z,2.44
2022-12-09T10:05:05.777Z,2.58
2022-12-09T10:07:42.395Z,2.58
2022-12-09T10:10:21.754Z,2.73
2022-12-09T10:13:07.205Z,2.79
2022-12-09T10:15:41.946Z,2.90
2022-12-09T10:18:21.007Z,2.78
2022-12-09T10:20:48.139Z,2.82
2022-12-09T10:23:17.280Z,2.85
2022-12-09T10:25:49.197Z,2.87
2022-12-09T10:28:26.953Z,2.70
2022-12-09T10:30:55.650Z,2.67
2022-12-09T10:33:39.139Z,2.71
2022-12-09T10:36:07.783Z,2.78
2022-12-09T10:38:40.540Z,2.72
2022-12-09T10:41:13.912Z,2.62
2022-12-09T10:43:44.120Z,2.68
2022-12-09T10:46:21.890Z,2.68
2022-12-09T10:48:49.402Z,2.77
2022-12-09T10:51:27.008Z,2.75
2022-12-09T10:53:56.748Z,2.64
2022-12-09T10:56:27.449Z,2.65
2022-12-09T10:59:22.527Z,2.70
2022-12-09T11:01:58.873Z,2.70
2022-12-09T11:04:30.061Z,2.74
2022-12-09T11:07:03.065Z,2.71
2022-12-09T11:09:29.884Z,2.81
2022-12-09T11:11:56.983Z,2.87
2022-12-09T11:14:30.521Z,2.75
2022-12-09T11:17:00.630Z,2.79
2022-12-09T11:19:36.999Z,2.66
2022-12-09T11:22:40.337Z,2.84
2022-12-09T11:25:15.774Z,2.77
2022-12-09T11:27:50.800Z,2.84
2022-12-09T11:30:20.220Z,2.81
2022-12-09T11:33:21.262Z,2.88
2022-12-09T11:35:47.959Z,2.82
2022-12-09T11:38:30.070Z,2.76
2022-12-09T11:41:15.497Z,2.79
2022-12-09T11:43:50.493Z,2.79
2022-12-09T11:46:22.555Z,2.83
2022-12-09T11:49:00.757Z,2.94
2022-12-09T11:51:35.070Z,2.95
2022-12-09T11:54:15.198Z,3.00
2022-12-09T11:56:43.000Z,3.06
2022-12-09T11:59:18.171Z,3.04
2022-12-09T12:01:52.447Z,3.06
2022-12-09T12:04:26.738Z,3.08
2022-12-09T12:07:03.176Z,2.99
2022-12-09T12:09:40.597Z,3.02
2022-12-09T12:12:16.356Z,2.96
2022-12-09T12:14:44.049Z,3.04
2022-12-09T12:17:32.179Z,3.07
2022-12-09T12:19:59.246Z,2.94
2022-12-09T12:22:51.538Z,3.01
2022-12-09T12:25:26.875Z,3.02
2022-12-09T12:28:14.290Z,3.02
2022-12-09T12:30:59.602Z,2.96
2022-12-09T12:36:28.772Z,3.06
2022-12-09T12:39:14.168Z,3.02
2022-12-09T12:41:46.700Z,3.01
2022-12-09T12:44:55.118Z,2.99
2022-12-09T12:47:34.427Z,2.91
2022-12-09T12:50:29.114Z,3.07
2022-12-09T12:53:07.924Z,2.95
2022-12-09T12:56:05.556Z,2.91
2022-12-09T12:58:50.351Z,2.90
2022-12-09T13:01:34.396Z,2.90
2022-12-09T13:04:12.657Z,2.94
2022-12-09T13:06:43.891Z,3.08
2022-12-09T13:09:40.459Z,3.06
2022-12-09T13:12:50.911Z,2.95
2022-12-09T13:15:21.494Z,2.92
2022-12-09T13:17:49.491Z,2.75
2022-12-09T13:20:27.594Z,2.71
2022-12-09T13:23:03.806Z,2.60
2022-12-09T13:25:37.641Z,2.49
2022-12-09T13:28:10.912Z,2.57
2022-12-09T13:30:52.658Z,2.54
2022-12-09T13:33:48.375Z,2.56
2022-12-09T13:36:42.779Z,2.46
2022-12-09T13:39:41.533Z,2.44
2022-12-09T13:42:46.297Z,2.41
2022-12-09T13:45:22.723Z,2.32
2022-12-09T13:47:50.207Z,2.27
2022-12-09T13:50:23.890Z,2.31
2022-12-09T13:52:55.626Z,2.37
2022-12-09T13:55:37.095Z,2.51
2022-12-09T13:58:19.414Z,2.50
2022-12-09T14:01:04.755Z,2.42
2022-12-09T14:03:37.905Z,2.35
2022-12-09T14:06:21.981Z,2.43
2022-12-09T14:08:52.195Z,2.41
2022-12-09T14:11:36.860Z,2.21
2022-12-09T14:14:25.271Z,2.21
2022-12-09T14:16:52.966Z,2.20
2022-12-09T14:19:25.290Z,2.22
2022-12-09T14:22:20.151Z,2.17
2022-12-09T14:25:29.155Z,2.16
2022-12-09T14:28:10.842Z,2.24
2022-12-09T14:30:53.767Z,2.25
2022-12-09T14:33:45.747Z,2.33
2022-12-09T14:36:15.308Z,2.33
2022-12-09T14:42:02.023Z,2.27
2022-12-09T14:44:47.826Z,2.16
2022-12-09T14:47:21.161Z,2.19
2022-12-09T14:49:49.991Z,2.31
2022-12-09T14:52:26.793Z,2.31
2022-12-09T14:54:58.235Z,2.24
2022-12-09T14:57:28.695Z,2.33
2022-12-09T14:59:57.108Z,2.17
2022-12-09T15:02:31.919Z,2.07
2022-12-09T15:05:03.418Z,2.04
2022-12-09T15:07:32.254Z,2.08
2022-12-09T15:10:03.125Z,2.03
2022-12-09T15:12:42.073Z,2.00
2022-12-09T15:15:19.992Z,2.03
2022-12-09T15:18:08.622Z,1.96
2022-12-09T15:20:38.860Z,1.90
2022-12-09T15:23:20.789Z,1.90
2022-12-09T15:25:50.315Z,1.92
2022-12-09T15:28:25.899Z,1.94
2022-12-09T15:31:13.881Z,1.99
2022-12-09T15:33:44.735Z,1.93
2022-12-09T15:36:34.165Z,1.90
2022-12-09T15:39:04.923Z,1.93
2022-12-09T15:42:05.659Z,1.90
2022-12-09T15:44:37.503Z,1.95
2022-12-09T15:47:10.448Z,1.88
2022-12-09T15:49:46.630Z,1.88
2022-12-09T15:52:16.195Z,1.88
2022-12-09T15:54:44.840Z,1.91
2022-12-09T15:57:15.849Z,1.79
2022-12-09T15:59:49.727Z,1.77
2022-12-09T16:02:25.562Z,1.87
2022-12-09T16:04:55.090Z,1.78
2022-12-09T16:07:25.246Z,1.79
2022-12-09T16:10:12.028Z,1.88
2022-12-09T16:12:40.637Z,1.94
2022-12-09T16:15:10.999Z,1.85
2022-12-09T16:17:54.815Z,1.85
2022-12-09T16:20:39.205Z,1.90
2022-12-09T16:23:20.537Z,1.88
2022-12-09T16:25:51.612Z,1.91
2022-12-09T16:28:24.720Z,1.83
2022-12-09T16:30:58.288Z,1.83
2022-12-09T16:33:25.150Z,1.81
2022-12-09T16:36:04.576Z,1.83
2022-12-09T16:38:35.943Z,1.82
2022-12-09T16:41:02.857Z,1.84
2022-12-09T16:43:30.732Z,1.88
2022-12-09T16:46:00.201Z,1.69
2022-12-09T16:48:29.805Z,1.85
2022-12-09T16:51:14.704Z,1.87
2022-12-09T16:53:45.619Z,1.85
2022-12-09T16:56:22.280Z,1.82
2022-12-09T16:58:51.353Z,1.89
2022-12-09T17:01:22.273Z,1.86
2022-12-09T17:03:57.424Z,1.77
2022-12-09T17:06:29.787Z,1.83
2022-12-09T17:08:56.503Z,1.77
2022-12-09T17:11:23.230Z,1.83
2022-12-09T17:13:50.235Z,1.91
2022-12-09T17:16:17.376Z,1.86
2022-12-09T17:18:44.038Z,1.92
2022-12-09T17:21:16.688Z,1.88
2022-12-09T17:23:43.851Z,1.78
2022-12-09T17:26:13.896Z,1.75
2022-12-09T17:28:41.509Z,1.69
2022-12-09T17:31:10.448Z,1.75
2022-12-09T17:33:37.297Z,1.77
2022-12-09T17:36:04.802Z,1.80
2022-12-09T17:38:31.456Z,1.83
2022-12-09T17:41:03.494Z,1.80
2022-12-09T17:43:30.036Z,1.87
2022-12-09T17:46:00.093Z,1.77
2022-12-09T17:48:27.660Z,1.76
2022-12-09T17:50:54.092Z,1.72
2022-12-09T17:55:50.849Z,1.79
2022-12-09T17:58:19.746Z,1.74
2022-12-09T18:00:47.802Z,1.77
2022-12-09T18:03:27.496Z,1.84
2022-12-09T18:06:00.321Z,2.05
2022-12-09T18:08:29.868Z,2.12
2022-12-09T18:10:56.491Z,2.18
2022-12-09T18:13:23.132Z,1.92
2022-12-09T18:15:54.102Z,1.88
2022-12-09T18:18:21.083Z,1.87
2022-12-09T18:20:47.625Z,1.80
2022-12-09T18:23:14.498Z,1.79
2022-12-09T18:25:41.470Z,1.85
2022-12-09T18:28:10.770Z,1.82
2022-12-09T18:30:39.645Z,1.77
2022-12-09T18:33:06.311Z,1.89
2022-12-09T18:35:39.413Z,1.88
2022-12-09T18:38:11.063Z,1.87
2022-12-09T18:41:00.480Z,1.73
2022-12-09T18:43:36.528Z,1.84
2022-12-09T18:46:07.556Z,1.87
2022-12-09T18:48:34.952Z,1.77
2022-12-09T18:51:01.542Z,1.76
2022-12-09T18:53:28.234Z,1.82
2022-12-09T18:55:54.750Z,1.80
2022-12-09T18:58:36.786Z,1.94
2022-12-09T19:01:20.832Z,1.85
2022-12-09T19:03:51.826Z,1.85
2022-12-09T19:06:26.462Z,1.78
2022-12-09T19:08:56.479Z,1.89
2022-12-09T19:11:26.656Z,1.81
2022-12-09T19:13:54.123Z,1.84
2022-12-09T19:16:21.662Z,1.76
2022-12-09T19:18:51.082Z,1.88
2022-12-09T19:21:19.922Z,2.03
2022-12-09T19:23:49.829Z,1.98
2022-12-09T19:26:19.458Z,2.17
2022-12-09T19:28:52.898Z,2.15
2022-12-09T19:31:28.317Z,2.01
2022-12-09T19:33:56.293Z,1.92
2022-12-09T19:36:24.565Z,1.92
2022-12-09T19:38:51.348Z,1.85
2022-12-09T19:41:20.441Z,1.99
2022-12-09T19:43:47.537Z,1.99
2022-12-09T19:46:18.846Z,1.98
2022-12-09T19:48:45.393Z,1.90
2022-12-09T19:51:14.823Z,1.84
2022-12-09T19:53:45.149Z,1.81
2022-12-09T19:56:21.144Z,1.74
2022-12-09T19:58:48.635Z,1.72
2022-12-09T20:01:27.961Z,1.75
2022-12-09T20:04:19.124Z,1.88
2022-12-09T20:06:50.333Z,2.05
2022-12-09T20:09:24.247Z,1.93
2022-12-09T20:11:52.618Z,1.81
2022-12-09T20:14:19.238Z,1.74
2022-12-09T20:16:48.009Z,1.72
2022-12-09T20:19:18.094Z,1.70
2022-12-09T20:21:44.598Z,1.76
2022-12-09T20:24:11.105Z,1.70
2022-12-09T20:26:39.687Z,1.76
2022-12-09T20:29:10.855Z,1.79
2022-12-09T20:31:38.635Z,1.89
2022-12-09T20:34:14.500Z,1.87
2022-12-09T20:36:43.464Z,1.91
2022-12-09T20:39:20.705Z,1.88
2022-12-09T20:41:48.450Z,1.83
2022-12-09T20:44:16.110Z,1.79
2022-12-09T20:46:46.925Z,1.85
2022-12-09T20:49:13.561Z,1.98
2022-12-09T20:51:45.330Z,2.02
2022-12-09T20:54:13.213Z,1.92
2022-12-09T20:56:39.876Z,2.01
2022-12-09T20:59:08.762Z,1.96
2022-12-09T21:01:36.893Z,2.05
2022-12-09T21:04:06.084Z,2.03
2022-12-09T21:06:35.763Z,1.98
2022-12-09T21:09:05.437Z,1.97
2022-12-09T21:11:32.535Z,1.93
2022-12-09T21:14:01.132Z,1.91
2022-12-09T21:16:30.416Z,1.95
2022-12-09T21:18:59.197Z,1.92
2022-12-09T21:21:26.982Z,1.88
2022-12-09T21:23:54.604Z,1.92
2022-12-09T21:26:23.923Z,1.83
2022-12-09T21:28:54.146Z,1.84
2022-12-09T21:31:21.759Z,1.92
2022-12-09T21:33:50.073Z,1.89
2022-12-09T21:36:20.684Z,1.89
2022-12-09T21:38:47.688Z,1.80
2022-12-09T21:41:19.835Z,1.84
2022-12-09T21:43:46.781Z,1.82
2022-12-09T21:46:15.780Z,1.79
2022-12-09T21:48:42.356Z,1.80
2022-12-09T21:51:10.853Z,1.81
2022-12-09T21:53:38.152Z,1.84
2022-12-09T21:56:05.696Z,1.87
2022-12-09T21:58:35.666Z,1.88
2022-12-09T22:01:13.799Z,1.93
2022-12-09T22:03:40.916Z,1.82
2022-12-09T22:06:08.304Z,1.83
2022-12-09T22:08:36.174Z,1.92
2022-12-09T22:11:20.310Z,1.80
2022-12-09T22:13:47.088Z,1.89
2022-12-09T22:16:16.729Z,1.75
2022-12-09T22:18:44.137Z,1.87
2022-12-09T22:21:24.547Z,1.81
2022-12-09T22:23:54.442Z,1.81
2022-12-09T22:26:27.001Z,1.81
2022-12-09T22:28:54.332Z,1.78
2022-12-09T22:31:22.355Z,1.85
2022-12-09T22:33:50.321Z,1.82
2022-12-09T22:36:17.531Z,1.86
2022-12-09T22:38:44.778Z,1.94
2022-12-09T22:41:14.594Z,1.94
2022-12-09T22:43:42.291Z,1.85
2022-12-09T22:46:17.814Z,1.89
2022-12-09T22:48:44.624Z,1.99
2022-12-09T22:51:16.780Z,2.03
2022-12-09T22:53:44.363Z,1.97
2022-12-09T22:56:12.441Z,1.94
2022-12-09T22:58:41.699Z,1.97
2022-12-09T23:01:11.152Z,1.93
2022-12-09T23:03:40.517Z,1.94
2022-12-09T23:06:08.078Z,1.79
2022-12-09T23:08:36.392Z,1.87
2022-12-09T23:11:05.278Z,1.93
2022-12-09T23:13:35.013Z,1.95
2022-12-09T23:16:06.524Z,1.89
2022-12-09T23:18:34.006Z,1.87
2022-12-09T23:21:10.810Z,1.86
2022-12-09T23:23:37.564Z,1.95
2022-12-09T23:26:06.383Z,1.83
2022-12-09T23:28:37.338Z,1.91
2022-12-09T23:31:05.881Z,1.96
2022-12-09T23:33:33.988Z,1.93
2022-12-09T23:36:13.263Z,1.79
2022-12-09T23:38:39.972Z,1.75
2022-12-09T23:41:07.323Z,1.84
2022-12-09T23:43:37.356Z,1.92
2022-12-09T23:46:15.434Z,1.93
2022-12-09T23:48:43.358Z,1.90
2022-12-09T23:51:18.814Z,1.84
2022-12-09T23:53:49.576Z,1.69
2022-12-09T23:56:19.082Z,1.69
2022-12-09T23:58:52.417Z,1.71
